To NAV CANADA Home Page Login to a new session Search on AWWS site Feedback and Comments Disclaimer Vers la page française équivalente Tips FAQ What's new on the site To the Forecasts and Observations / NOTAM section To "File a Flight Plan" website Publications and other links Update of the User's profile FIC Telephone Numbers My Weather Data Folder Route Weather Data Regional Weather Data Local Weather Data To the Forecasts and Observations / NOTAM section
Request Generated 08/28/2016 at 08:33:12 UTC . Weather information available at that time is displayed.

METAR/TAF

ARVIAT/NU    (show WxCam)

METAR CYEK 280800Z AUTO 05015KT 9SM BKN008 OVC017 09/08 A3001 RMK
SLP164=
SPECI CYEK 280758Z AUTO 05013KT 9SM BKN008 OVC017 09/08 A3001 RMK
SLP164=
METAR CYEK 280700Z AUTO 04011G16KT 9SM BKN010 OVC019 09/08 A3001 RMK
SLP164=
METAR CYEK 280600Z AUTO 04012G17KT 9SM BKN010 OVC019 09/08 A2999 RMK
SLP157=

TAF CYEK 280538Z 2806/2818 03013KT P6SM FEW010 OVC025 TEMPO 2806/2808
5SM -SHRA BR OVC010
FM280800 06012KT P6SM SCT006 OVC020 TEMPO 2808/2815 3SM -SHRA BR
OVC006
FM281500 06012KT P6SM SCT020 BKN040 TEMPO 2815/2818 P6SM -SHRA
BKN020 OVC040
RMK FCST BASED ON AUTO OBS. NXT FCST BY 281200Z=
Your time UTC time
Weather data provided by Environment Canada and NAV CANADA